Time;durP1;ratioP1;P1;durP2;ratioP2;P2;SDS_P1;SDS_P2;PMS_P1;PMS_P2;Temp;Humidity;BMP_temperature;BMP_pressure;BME280_temperature;BME280_humidity;BME280_pressure;Samples;Min_cycle;Max_cycle;Signal;HPM_P1;HPM_P2
2021/06/07 00:00:32;;;;;;;8.45;4.85;;;;;;;12.69;69.58;102728.72;5083849;28;20060;-74
2021/06/07 00:02:59;;;;;;;11.07;4.28;;;;;;;12.67;69.81;102731.41;5078825;28;20469;-74
2021/06/07 00:05:26;;;;;;;7.10;4.00;;;;;;;12.68;69.84;102730.53;5082860;28;20060;-76
2021/06/07 00:07:54;;;;;;;9.82;4.60;;;;;;;12.70;70.54;102734.06;5080720;28;20060;-75
2021/06/07 00:10:23;;;;;;;8.52;4.20;;;;;;;12.63;69.57;102724.34;5079502;28;20056;-74
2021/06/07 00:12:51;;;;;;;11.23;4.93;;;;;;;12.61;69.90;102726.13;5082403;28;20105;-74
2021/06/07 00:15:23;;;;;;;8.48;4.88;;;;;;;12.57;70.39;102728.88;5077742;28;20143;-75
2021/06/07 00:17:51;;;;;;;10.73;4.68;;;;;;;12.49;70.22;102724.44;5080554;28;20101;-74
2021/06/07 00:20:26;;;;;;;10.90;4.32;;;;;;;12.49;70.68;102729.81;5075004;28;20134;-74
2021/06/07 00:22:53;;;;;;;11.35;5.22;;;;;;;12.50;71.59;102723.56;5082245;28;20052;-73
2021/06/07 00:25:23;;;;;;;11.88;5.43;;;;;;;12.49;71.55;102719.09;5078378;28;20342;-74
2021/06/07 00:27:50;;;;;;;9.32;4.65;;;;;;;12.45;70.93;102720.03;5076587;28;20835;-74
2021/06/07 00:30:18;;;;;;;9.77;4.85;;;;;;;12.47;71.47;102720.91;5079696;28;20530;-76
2021/06/07 00:32:46;;;;;;;10.07;4.32;;;;;;;12.43;71.81;102719.19;5081727;28;20056;-74
2021/06/07 00:35:18;;;;;;;10.10;4.88;;;;;;;12.43;71.38;102715.59;5079551;28;20056;-75
2021/06/07 00:37:46;;;;;;;9.43;5.07;;;;;;;12.39;71.89;102717.41;5083556;28;20064;-70
2021/06/07 00:40:14;;;;;;;9.43;4.85;;;;;;;12.37;72.23;102715.66;5075916;28;20056;-70
2021/06/07 00:42:44;;;;;;;9.13;4.40;;;;;;;12.35;72.29;102718.38;5084231;28;20589;-70
2021/06/07 00:45:14;;;;;;;9.00;5.10;;;;;;;12.32;72.33;102713.91;5076526;28;20075;-70
2021/06/07 00:47:42;;;;;;;9.80;4.45;;;;;;;12.25;72.32;102708.66;5084476;28;20052;-71
2021/06/07 00:50:12;;;;;;;9.07;5.40;;;;;;;12.26;72.78;102713.06;5076754;28;20060;-70
2021/06/07 00:52:59;;;;;;;10.73;5.82;;;;;;;12.21;72.42;102712.22;5079070;28;20056;-70
2021/06/07 00:55:28;;;;;;;10.38;4.97;;;;;;;12.14;72.37;102714.09;5077098;28;20190;-71
2021/06/07 00:57:58;;;;;;;8.00;4.82;;;;;;;12.13;73.39;102720.34;5077495;28;20310;-70
2021/06/07 01:00:27;;;;;;;10.40;5.40;;;;;;;12.05;72.70;102715.03;5078576;28;20098;-71
2021/06/07 01:02:56;;;;;;;10.77;5.38;;;;;;;12.05;73.82;102715.03;5079189;28;20146;-71
2021/06/07 01:05:42;;;;;;;9.23;4.97;;;;;;;11.99;73.91;102719.59;5074572;28;20055;-71
2021/06/07 01:08:09;;;;;;;11.75;4.78;;;;;;;11.95;74.14;102713.34;5082678;28;20167;-72
2021/06/07 01:10:37;;;;;;;11.48;5.55;;;;;;;11.94;74.26;102720.50;5080150;28;20488;-71
2021/06/07 01:13:06;;;;;;;13.18;5.80;;;;;;;11.90;74.61;102715.13;5082843;28;20064;-71
2021/06/07 01:15:33;;;;;;;8.23;4.72;;;;;;;11.90;74.55;102724.06;5073332;28;20056;-72
2021/06/07 01:18:01;;;;;;;11.38;5.82;;;;;;;11.91;74.76;102716.97;5080479;28;20049;-72
2021/06/07 01:20:28;;;;;;;13.20;6.53;;;;;;;11.88;74.18;102716.94;5079028;28;20096;-71
2021/06/07 01:22:57;;;;;;;9.40;5.32;;;;;;;11.84;74.04;102710.72;5076452;28;20056;-72
2021/06/07 01:25:28;;;;;;;11.35;6.35;;;;;;;11.83;74.87;102708.06;5080739;28;20064;-70
2021/06/07 01:27:56;;;;;;;11.10;5.55;;;;;;;11.78;74.89;102713.44;5074553;28;20052;-71
2021/06/07 01:30:26;;;;;;;10.35;6.03;;;;;;;11.79;74.98;102712.56;5082730;28;20322;-71
2021/06/07 01:32:55;;;;;;;10.75;5.68;;;;;;;11.77;75.48;102704.53;5072035;28;20063;-72
2021/06/07 01:35:23;;;;;;;10.73;5.90;;;;;;;11.77;76.20;102706.34;5079912;28;20424;-72
2021/06/07 01:37:52;;;;;;;10.80;5.63;;;;;;;11.77;75.55;102703.66;5075027;28;20463;-74
2021/06/07 01:40:24;;;;;;;15.30;6.35;;;;;;;11.73;75.15;102710.81;5079150;28;20063;-70
2021/06/07 01:42:52;;;;;;;11.18;6.18;;;;;;;11.71;75.51;102707.28;5074686;28;20060;-71
2021/06/07 01:45:23;;;;;;;10.70;6.40;;;;;;;11.68;75.47;102704.63;5079872;28;20056;-71
2021/06/07 01:47:53;;;;;;;12.23;6.72;;;;;;;11.70;75.46;102699.25;5079617;28;20298;-71
2021/06/07 01:50:21;;;;;;;9.85;5.47;;;;;;;11.68;75.77;102698.38;5076550;28;20068;-70
2021/06/07 01:52:50;;;;;;;12.50;6.45;;;;;;;11.69;76.08;102703.69;5077623;28;20142;-71
2021/06/07 01:55:19;;;;;;;12.70;6.78;;;;;;;11.63;75.98;102703.75;5077653;28;20101;-73
2021/06/07 01:57:50;;;;;;;13.52;6.40;;;;;;;11.62;75.88;102701.09;5075444;28;20063;-71
2021/06/07 02:00:24;;;;;;;11.40;6.13;;;;;;;11.62;76.68;102690.41;5076877;28;20064;-71
2021/06/07 02:02:52;;;;;;;13.07;6.78;;;;;;;11.59;76.30;102691.28;5072171;28;20071;-71
2021/06/07 02:05:21;;;;;;;12.10;5.93;;;;;;;11.57;76.41;102698.44;5084436;28;20058;-70
2021/06/07 02:07:49;;;;;;;14.18;6.90;;;;;;;11.56;76.77;102700.25;5073651;28;20068;-72
2021/06/07 02:10:18;;;;;;;11.48;5.75;;;;;;;11.51;76.51;102695.81;5080702;28;20079;-70
2021/06/07 02:12:45;;;;;;;11.05;6.10;;;;;;;11.48;77.00;102693.16;5074598;28;20082;-71
2021/06/07 02:15:14;;;;;;;12.13;6.13;;;;;;;11.49;77.14;102692.25;5077683;28;20356;-71
2021/06/07 02:17:42;;;;;;;10.45;6.20;;;;;;;11.46;77.18;102694.94;5081437;28;20063;-70
2021/06/07 02:20:13;;;;;;;12.13;6.43;;;;;;;11.45;77.65;102703.88;5080094;28;20067;-72
2021/06/07 02:22:42;;;;;;;11.85;6.57;;;;;;;11.44;77.11;102697.66;5084875;28;20076;-70
2021/06/07 02:25:13;;;;;;;11.70;5.80;;;;;;;11.44;77.14;102699.41;5076408;28;20344;-75
2021/06/07 02:27:40;;;;;;;11.13;5.75;;;;;;;11.41;76.95;102700.34;5078880;28;20054;-76
2021/06/07 02:30:11;;;;;;;12.73;6.15;;;;;;;11.40;77.17;102704.78;5077986;28;20088;-76
2021/06/07 02:32:40;;;;;;;14.73;6.85;;;;;;;11.38;77.26;102700.34;5079753;28;20055;-75
2021/06/07 02:35:10;;;;;;;12.48;7.60;;;;;;;11.36;77.96;102702.16;5078913;28;20071;-76
2021/06/07 02:37:38;;;;;;;13.13;7.10;;;;;;;11.32;77.50;102701.28;5078121;28;20064;-76
2021/06/07 02:40:08;;;;;;;14.15;7.07;;;;;;;11.32;78.04;102703.03;5077096;28;20064;-74
2021/06/07 02:42:37;;;;;;;13.57;6.30;;;;;;;11.29;77.66;102706.63;5079884;28;20074;-76
2021/06/07 02:45:07;;;;;;;12.57;7.30;;;;;;;11.25;77.99;102704.84;5076618;28;20546;-76
2021/06/07 02:47:35;;;;;;;12.88;7.00;;;;;;;11.23;78.71;102711.13;5077433;28;20540;-74
2021/06/07 02:50:06;;;;;;;12.75;7.03;;;;;;;11.19;78.57;102713.81;5078816;28;20238;-75
2021/06/07 02:52:33;;;;;;;13.55;7.20;;;;;;;11.19;78.24;102708.47;5082104;28;20087;-75
2021/06/07 02:55:01;;;;;;;15.02;7.32;;;;;;;11.16;79.01;102707.59;5072689;28;20068;-74
2021/06/07 02:57:28;;;;;;;13.63;6.90;;;;;;;11.14;78.22;102712.06;5079354;28;20052;-74
2021/06/07 02:59:55;;;;;;;14.70;7.25;;;;;;;11.11;78.33;102710.28;5075508;28;20060;-74
2021/06/07 03:02:23;;;;;;;14.68;6.82;;;;;;;11.06;78.55;102706.75;5077748;28;20363;-76
2021/06/07 03:04:50;;;;;;;14.70;7.28;;;;;;;11.09;79.03;102709.41;5079410;28;20608;-70
2021/06/07 03:07:19;;;;;;;14.07;7.03;;;;;;;11.11;79.57;102709.41;5077852;28;20114;-71
2021/06/07 03:09:47;;;;;;;15.13;7.45;;;;;;;11.14;80.68;102714.75;5079846;28;20162;-71
2021/06/07 03:12:14;;;;;;;13.07;7.88;;;;;;;11.12;79.64;102719.19;5077000;28;20086;-70
2021/06/07 03:14:43;;;;;;;13.18;7.05;;;;;;;11.11;79.82;102726.31;5078805;28;20075;-70
2021/06/07 03:17:10;;;;;;;16.65;7.78;;;;;;;11.08;78.85;102720.97;5077421;28;20064;-75
2021/06/07 03:19:38;;;;;;;17.77;8.38;;;;;;;11.12;79.96;102725.44;5078774;28;20060;-75
2021/06/07 03:22:05;;;;;;;12.80;7.07;;;;;;;11.11;80.00;102720.09;5077624;28;20439;-75
2021/06/07 03:24:34;;;;;;;15.60;7.72;;;;;;;11.09;79.50;102714.75;5078732;28;20062;-74
2021/06/07 03:27:03;;;;;;;15.07;7.75;;;;;;;11.06;79.33;102720.09;5074288;28;20128;-75
2021/06/07 03:29:30;;;;;;;16.02;9.48;;;;;;;11.07;80.22;102715.63;5079923;28;20352;-74
2021/06/07 03:31:58;;;;;;;12.50;7.15;;;;;;;11.05;79.98;102714.75;5076459;28;20114;-76
2021/06/07 03:34:25;;;;;;;13.23;7.97;;;;;;;11.03;80.38;102713.00;5094713;27;20059;-75
2021/06/07 03:36:52;;;;;;;13.32;7.60;;;;;;;11.02;79.67;102710.34;5075759;28;20066;-75
2021/06/07 03:39:20;;;;;;;12.13;7.25;;;;;;;11.00;79.80;102713.00;5079001;28;20067;-74
2021/06/07 03:41:48;;;;;;;14.15;8.10;;;;;;;11.05;80.44;102707.66;5076783;28;20129;-76
2021/06/07 03:44:16;;;;;;;15.00;8.70;;;;;;;11.03;80.27;102704.97;5093603;27;20171;-74
2021/06/07 03:46:43;;;;;;;13.95;8.02;;;;;;;11.01;79.95;102711.22;5075718;28;20109;-74
2021/06/07 03:49:10;;;;;;;15.75;8.52;;;;;;;11.02;80.30;102705.00;5078559;28;20060;-75
2021/06/07 03:51:38;;;;;;;17.17;8.45;;;;;;;11.01;80.15;102717.44;5076940;28;20083;-74
2021/06/07 03:54:05;;;;;;;16.70;8.40;;;;;;;11.06;80.78;102709.41;5075445;28;20086;-75
2021/06/07 03:56:33;;;;;;;17.33;9.90;;;;;;;11.08;80.92;102712.06;5079228;28;20062;-76
2021/06/07 03:59:02;;;;;;;17.42;9.30;;;;;;;11.10;80.94;102710.28;5077132;28;20059;-71
2021/06/07 04:01:29;;;;;;;16.58;8.25;;;;;;;11.07;80.60;102711.19;5076264;28;20051;-71
2021/06/07 04:03:57;;;;;;;14.77;7.90;;;;;;;11.06;80.17;102708.53;5075756;28;20064;-71
2021/06/07 04:06:24;;;;;;;16.67;8.43;;;;;;;11.08;80.88;102712.97;5079658;28;20060;-73
2021/06/07 04:08:56;;;;;;;15.07;7.85;;;;;;;11.09;80.53;102713.88;5073711;28;20060;-71
2021/06/07 04:11:23;;;;;;;16.60;8.10;;;;;;;11.12;80.95;102714.75;5076086;28;20106;-71
2021/06/07 04:13:51;;;;;;;14.18;8.77;;;;;;;11.14;80.64;102712.06;5073415;28;20171;-71
2021/06/07 04:16:20;;;;;;;14.73;7.70;;;;;;;11.14;80.56;102706.72;5078959;28;20064;-71
2021/06/07 04:18:47;;;;;;;12.88;7.15;;;;;;;11.21;81.09;102697.78;5075210;28;20071;-71
2021/06/07 04:21:15;;;;;;;15.23;7.88;;;;;;;11.25;81.03;102707.53;5079093;28;20068;-72
2021/06/07 04:23:42;;;;;;;12.73;7.97;;;;;;;11.27;80.99;102715.53;5072801;28;20241;-72
2021/06/07 04:26:10;;;;;;;16.33;8.30;;;;;;;11.31;80.48;102709.31;5077391;28;20377;-72
2021/06/07 04:28:39;;;;;;;13.23;7.65;;;;;;;11.34;80.55;102714.59;5075124;28;20058;-71
2021/06/07 04:31:07;;;;;;;12.95;7.20;;;;;;;11.43;80.39;102716.38;5080002;28;20651;-71
2021/06/07 04:33:35;;;;;;;13.00;7.78;;;;;;;11.55;80.37;102711.81;5077659;28;20141;-71
2021/06/07 04:36:04;;;;;;;16.42;8.25;;;;;;;11.65;80.17;102714.44;5079219;28;20070;-71
2021/06/07 04:38:31;;;;;;;15.00;7.82;;;;;;;11.84;80.39;102721.44;5071159;28;20109;-72
2021/06/07 04:40:58;;;;;;;13.93;7.60;;;;;;;11.95;79.85;102710.66;5077405;28;20121;-76
2021/06/07 04:43:26;;;;;;;12.13;7.18;;;;;;;12.11;79.65;102714.13;5073795;28;20060;-74
2021/06/07 04:45:53;;;;;;;14.63;7.65;;;;;;;12.33;78.64;102721.06;5074666;28;20155;-74
2021/06/07 04:48:21;;;;;;;15.18;8.00;;;;;;;12.44;77.88;102722.72;5077513;28;20055;-76
2021/06/07 04:50:51;;;;;;;16.23;8.10;;;;;;;12.62;77.55;102727.91;5074602;28;20083;-74
2021/06/07 04:53:19;;;;;;;13.50;7.53;;;;;;;12.83;77.08;102717.84;5075278;28;20056;-75
2021/06/07 04:55:47;;;;;;;13.30;7.57;;;;;;;13.05;76.47;102718.47;5071244;28;20490;-75
2021/06/07 04:58:17;;;;;;;13.65;7.30;;;;;;;13.27;75.73;102711.03;5074548;28;20365;-74
2021/06/07 05:00:48;;;;;;;12.13;6.32;;;;;;;13.49;74.89;102718.84;5074179;28;20060;-74
2021/06/07 05:03:16;;;;;;;14.65;7.65;;;;;;;13.69;73.64;102706.00;5073957;28;20071;-75
2021/06/07 05:05:45;;;;;;;13.20;7.13;;;;;;;13.99;73.52;102712.66;5074630;28;20056;-74
2021/06/07 05:08:14;;;;;;;13.75;7.55;;;;;;;14.29;72.14;102714.88;5078355;28;20340;-74
2021/06/07 05:10:41;;;;;;;14.32;7.50;;;;;;;14.45;70.92;102710.97;5071790;28;20151;-74
2021/06/07 05:13:09;;;;;;;11.85;6.85;;;;;;;14.71;69.77;102709.59;5078707;28;20064;-75
2021/06/07 05:15:36;;;;;;;14.65;6.63;;;;;;;14.90;69.20;102708.34;5073467;28;20198;-74
2021/06/07 05:18:06;;;;;;;13.88;7.07;;;;;;;15.19;68.73;102714.00;5078783;28;20056;-74
2021/06/07 05:20:33;;;;;;;14.63;7.25;;;;;;;15.41;68.00;102712.63;5073357;28;20062;-74
2021/06/07 05:23:01;;;;;;;12.82;7.15;;;;;;;15.65;67.47;102712.97;5077060;28;20060;-77
2021/06/07 05:25:32;;;;;;;12.20;6.20;;;;;;;15.82;64.62;102720.69;5075309;28;20845;-74
2021/06/07 05:28:01;;;;;;;10.85;5.95;;;;;;;16.04;63.83;102716.53;5072960;28;20406;-75
2021/06/07 05:30:30;;;;;;;13.35;6.47;;;;;;;16.42;63.42;102725.41;5075164;28;20187;-76
2021/06/07 05:32:58;;;;;;;11.93;6.10;;;;;;;16.62;61.93;102716.78;5092789;28;20098;-73
2021/06/07 05:35:28;;;;;;;9.68;5.65;;;;;;;16.92;61.45;102724.94;5074906;28;20063;-74
2021/06/07 05:37:57;;;;;;;9.23;5.90;;;;;;;17.03;60.13;102713.00;5092265;28;20146;-74
2021/06/07 05:40:26;;;;;;;10.50;6.40;;;;;;;17.26;59.66;102717.69;5074088;28;20062;-74
2021/06/07 05:42:56;;;;;;;10.18;6.22;;;;;;;17.39;58.12;102712.81;5070880;28;20055;-73
2021/06/07 05:45:24;;;;;;;11.27;5.65;;;;;;;17.21;58.36;102711.53;5074015;28;20062;-75
2021/06/07 05:47:54;;;;;;;12.57;6.28;;;;;;;17.45;57.23;102715.28;5075307;28;20052;-75
2021/06/07 05:50:22;;;;;;;10.32;5.88;;;;;;;17.63;56.34;102724.63;5076741;28;20151;-73
2021/06/07 05:52:51;;;;;;;10.05;6.45;;;;;;;17.85;55.99;102719.44;5071995;28;20156;-75
2021/06/07 05:55:20;;;;;;;16.10;7.05;;;;;;;17.86;55.80;102715.78;5077313;28;20064;-75
2021/06/07 05:57:50;;;;;;;12.32;6.63;;;;;;;18.09;56.09;102717.75;5072186;28;20052;-75
2021/06/07 06:00:22;;;;;;;14.57;7.50;;;;;;;18.13;55.19;102724.78;5078943;28;20064;-75
2021/06/07 06:02:49;;;;;;;13.32;6.60;;;;;;;18.14;55.14;102725.69;5072969;28;20405;-74
2021/06/07 06:05:17;;;;;;;11.45;6.05;;;;;;;18.49;54.39;102716.38;5079525;28;20052;-74
2021/06/07 06:07:45;;;;;;;11.35;6.80;;;;;;;18.54;54.39;102716.19;5072801;28;20061;-76
2021/06/07 06:10:14;;;;;;;10.80;6.40;;;;;;;18.92;54.29;102709.41;5079737;28;20467;-74
2021/06/07 06:12:43;;;;;;;12.50;7.55;;;;;;;18.63;54.03;102718.56;5078031;28;20060;-74
2021/06/07 06:15:12;;;;;;;14.65;7.78;;;;;;;19.47;52.80;102710.91;5076951;28;20894;-74
2021/06/07 06:17:42;;;;;;;10.43;6.82;;;;;;;19.80;52.90;102707.78;5073605;28;20060;-74
2021/06/07 06:20:10;;;;;;;10.40;6.43;;;;;;;19.47;52.46;102702.78;5074654;28;20063;-75
2021/06/07 06:22:38;;;;;;;12.48;6.78;;;;;;;19.82;51.65;102706.81;5072238;28;20060;-74
2021/06/07 06:25:06;;;;;;;14.40;7.18;;;;;;;19.78;51.11;102711.47;5078628;28;20060;-75
2021/06/07 06:27:34;;;;;;;11.60;6.95;;;;;;;20.00;50.95;102709.66;5074084;28;20056;-74
2021/06/07 06:30:01;;;;;;;11.90;6.97;;;;;;;19.74;50.91;102711.63;5073987;28;20060;-73
2021/06/07 06:32:29;;;;;;;11.55;6.15;;;;;;;19.96;50.33;102711.63;5073234;28;20097;-74
2021/06/07 06:34:57;;;;;;;14.05;7.30;;;;;;;19.96;51.16;102711.63;5069927;28;20056;-71
2021/06/07 06:37:25;;;;;;;12.82;7.00;;;;;;;19.92;50.55;102704.56;5075748;28;20056;-71
2021/06/07 06:39:52;;;;;;;11.25;6.97;;;;;;;19.78;51.21;102706.06;5069217;28;20068;-71
2021/06/07 06:42:20;;;;;;;10.93;6.50;;;;;;;20.53;49.75;102709.16;5080113;28;20074;-70
2021/06/07 06:44:47;;;;;;;11.90;7.03;;;;;;;20.77;49.46;102712.66;5065263;28;20151;-70
2021/06/07 06:47:14;;;;;;;12.77;7.45;;;;;;;20.79;48.44;102712.53;5072695;28;20199;-70
2021/06/07 06:49:42;;;;;;;9.80;6.55;;;;;;;20.55;49.50;102715.41;5073273;28;20062;-70
2021/06/07 06:52:11;;;;;;;10.40;6.93;;;;;;;19.82;50.98;102714.03;5070478;28;21430;-70
2021/06/07 06:54:38;;;;;;;10.73;6.25;;;;;;;21.17;49.40;102710.78;5069975;28;20265;-71
2021/06/07 06:57:06;;;;;;;11.38;6.45;;;;;;;21.51;47.88;102711.03;5070346;28;20074;-71
2021/06/07 06:59:50;;;;;;;12.35;7.25;;;;;;;20.77;49.07;102709.03;5074855;28;20051;-73
2021/06/07 07:02:17;;;;;;;13.13;7.28;;;;;;;21.17;48.81;102701.75;5074007;28;20108;-73
2021/06/07 07:04:45;;;;;;;11.95;7.00;;;;;;;21.00;48.69;102703.44;5074655;28;20060;-73
2021/06/07 07:07:13;;;;;;;11.90;6.55;;;;;;;21.45;47.08;102702.19;5078078;28;20056;-70
2021/06/07 07:09:43;;;;;;;11.73;7.35;;;;;;;21.55;46.76;102699.06;5074279;28;20075;-69
2021/06/07 07:12:11;;;;;;;12.07;6.88;;;;;;;21.68;46.29;102702.94;5075950;28;20151;-71
2021/06/07 07:14:40;;;;;;;8.27;5.57;;;;;;;22.24;45.00;102703.72;5074597;28;20055;-70
2021/06/07 07:17:08;;;;;;;12.25;6.18;;;;;;;22.22;43.64;102704.72;5078716;28;20145;-69
2021/06/07 07:19:36;;;;;;;11.27;6.53;;;;;;;21.53;43.91;102706.41;5072573;28;20060;-69
2021/06/07 07:22:05;;;;;;;10.82;6.30;;;;;;;21.82;44.51;102708.53;5080228;28;20066;-70
2021/06/07 07:24:34;;;;;;;10.85;6.63;;;;;;;22.34;43.42;102696.00;5070678;28;20112;-70
2021/06/07 07:27:02;;;;;;;11.32;6.55;;;;;;;22.26;43.49;102696.34;5080652;28;20089;-69
2021/06/07 07:29:32;;;;;;;11.25;7.25;;;;;;;22.03;43.45;102700.25;5076431;28;20079;-70
2021/06/07 07:32:00;;;;;;;11.65;7.22;;;;;;;22.60;43.62;102707.31;5077177;28;20060;-72
2021/06/07 07:34:27;;;;;;;10.82;6.32;;;;;;;22.78;41.02;102689.09;5075905;28;20481;-70
2021/06/07 07:36:55;;;;;;;10.32;6.68;;;;;;;22.72;42.63;102695.78;5073804;28;20064;-71
2021/06/07 07:39:22;;;;;;;9.50;6.30;;;;;;;22.42;41.44;102693.72;5078558;28;20182;-70
2021/06/07 07:41:51;;;;;;;11.27;6.30;;;;;;;22.37;41.04;102694.00;5070482;28;20071;-71
2021/06/07 07:44:19;;;;;;;10.68;5.53;;;;;;;22.12;40.81;102690.75;5075900;28;20171;-70
2021/06/07 07:46:47;;;;;;;10.35;5.53;;;;;;;22.97;38.69;102691.69;5076125;28;20204;-70
2021/06/07 07:49:15;;;;;;;9.25;5.13;;;;;;;23.49;37.98;102689.63;5078060;28;20633;-71
2021/06/07 07:51:43;;;;;;;10.80;5.63;;;;;;;22.94;37.69;102696.34;5082512;28;20152;-73
2021/06/07 07:54:10;;;;;;;8.88;5.20;;;;;;;22.40;38.62;102701.09;5075990;28;20055;-74
2021/06/07 07:56:39;;;;;;;11.68;6.45;;;;;;;22.69;38.90;102687.78;5077404;28;20179;-73
2021/06/07 07:59:07;;;;;;;7.50;5.00;;;;;;;23.25;37.82;102685.63;5068670;28;20142;-73
2021/06/07 08:01:36;;;;;;;9.75;5.28;;;;;;;23.71;37.03;102688.41;5077095;28;20067;-75
2021/06/07 08:04:04;;;;;;;10.55;6.28;;;;;;;23.24;37.17;102692.00;5071825;28;20450;-73
2021/06/07 08:06:32;;;;;;;11.40;5.75;;;;;;;23.21;36.68;102684.03;5078151;28;20058;-73
2021/06/07 08:08:59;;;;;;;9.45;5.10;;;;;;;23.72;36.72;102686.53;5073166;28;20063;-74
2021/06/07 08:11:27;;;;;;;9.05;5.22;;;;;;;23.43;37.15;102686.44;5079103;28;20060;-73
2021/06/07 08:13:54;;;;;;;9.85;5.13;;;;;;;23.87;36.37;102677.50;5073740;28;20055;-73
2021/06/07 08:16:23;;;;;;;10.68;4.60;;;;;;;24.15;34.90;102681.31;5079321;28;20072;-74
2021/06/07 08:18:50;;;;;;;9.63;5.13;;;;;;;23.75;36.09;102673.66;5074442;28;20067;-74
2021/06/07 08:21:18;;;;;;;8.50;5.00;;;;;;;23.94;35.34;102678.91;5077486;28;20060;-74
2021/06/07 08:23:46;;;;;;;8.27;5.03;;;;;;;24.31;34.46;102675.78;5093277;28;20446;-68
2021/06/07 08:26:13;;;;;;;8.77;5.03;;;;;;;23.84;33.44;102673.13;5074434;28;20054;-71
2021/06/07 08:28:41;;;;;;;9.95;5.35;;;;;;;24.06;34.59;102685.47;5073616;28;20063;-69
2021/06/07 08:31:08;;;;;;;11.10;5.75;;;;;;;24.42;33.67;102678.72;5075870;28;20059;-71
2021/06/07 08:33:37;;;;;;;7.88;5.25;;;;;;;23.85;34.57;102680.34;5072545;28;20064;-69
2021/06/07 08:36:06;;;;;;;9.93;5.43;;;;;;;23.94;35.01;102680.72;5078200;28;20110;-70
2021/06/07 08:38:33;;;;;;;10.25;4.55;;;;;;;24.56;34.36;102683.34;5075014;28;20066;-70
2021/06/07 08:41:01;;;;;;;7.03;4.28;;;;;;;24.95;33.34;102682.66;5072776;28;20056;-73
2021/06/07 08:43:29;;;;;;;7.03;5.15;;;;;;;24.69;33.21;102675.25;5073313;28;20056;-73
2021/06/07 08:46:06;;;;;;;9.48;4.90;;;;;;;25.51;33.41;102676.38;5075203;28;20052;-73
2021/06/07 08:48:34;;;;;;;10.43;5.10;;;;;;;25.25;32.26;102672.56;5077143;28;20084;-72
2021/06/07 08:51:03;;;;;;;9.45;4.72;;;;;;;25.46;33.20;102668.47;5073794;28;20064;-73
2021/06/07 08:53:30;;;;;;;9.90;5.95;;;;;;;25.37;32.56;102668.19;5076216;28;20052;-73
2021/06/07 08:56:02;;;;;;;9.50;5.80;;;;;;;24.98;32.77;102677.00;5072175;28;20069;-73
2021/06/07 08:58:29;;;;;;;9.02;5.53;;;;;;;25.01;31.65;102669.59;5076418;28;20063;-69
2021/06/07 09:00:56;;;;;;;10.73;6.03;;;;;;;25.09;32.81;102668.13;5074686;28;20060;-69
2021/06/07 09:03:30;;;;;;;12.10;5.88;;;;;;;25.27;32.85;102666.09;5073406;28;20063;-70
2021/06/07 09:06:01;;;;;;;11.45;6.22;;;;;;;25.63;32.39;102666.47;5071361;28;20064;-70
2021/06/07 09:08:34;;;;;;;9.32;5.93;;;;;;;25.59;31.82;102659.44;5075588;28;20060;-69
2021/06/07 09:11:07;;;;;;;8.93;5.50;;;;;;;25.85;32.47;102661.28;5071895;28;20048;-69
2021/06/07 09:13:35;;;;;;;10.55;5.72;;;;;;;24.88;32.53;102661.34;5073074;28;20051;-69
2021/06/07 09:16:04;;;;;;;10.18;6.63;;;;;;;24.80;33.47;102661.81;5074849;28;20078;-69
2021/06/07 09:18:34;;;;;;;11.10;5.53;;;;;;;25.57;33.29;102656.81;5071754;28;20192;-73
2021/06/07 09:21:04;;;;;;;8.43;5.43;;;;;;;26.00;33.77;102666.69;5074378;28;20052;-73
2021/06/07 09:23:46;;;;;;;14.10;6.35;;;;;;;25.42;33.17;102647.81;5075206;28;20051;-74
2021/06/07 09:26:25;;;;;;;10.48;6.47;;;;;;;25.47;33.00;102659.31;5075395;28;20083;-74
2021/06/07 09:29:00;;;;;;;12.13;7.72;;;;;;;24.70;33.90;102668.84;5078378;28;20326;-74
2021/06/07 09:31:30;;;;;;;10.70;5.60;;;;;;;25.67;33.06;102657.06;5074454;28;20217;-73
2021/06/07 09:34:01;;;;;;;12.00;5.85;;;;;;;25.45;33.67;102663.97;5075384;28;20056;-68
2021/06/07 09:36:39;;;;;;;10.82;6.72;;;;;;;24.89;34.14;102666.69;5075520;28;20067;-70
2021/06/07 09:39:11;;;;;;;12.10;6.13;;;;;;;25.66;33.06;102663.50;5076458;28;20055;-69
2021/06/07 09:41:57;;;;;;;9.35;6.53;;;;;;;25.05;33.40;102669.31;5068238;28;20072;-69
2021/06/07 09:44:38;;;;;;;11.43;6.72;;;;;;;25.43;33.63;102667.78;5074890;28;20059;-70
2021/06/07 09:47:18;;;;;;;11.35;6.50;;;;;;;25.54;34.00;102659.78;5057714;28;20201;-69
2021/06/07 09:49:50;;;;;;;9.52;5.97;;;;;;;25.50;33.29;102661.81;5078217;28;20056;-71
2021/06/07 09:52:22;;;;;;;8.82;5.70;;;;;;;25.73;33.17;102664.84;5071375;28;20083;-73
2021/06/07 09:55:08;;;;;;;11.73;7.28;;;;;;;25.28;33.86;102665.09;5076274;28;20051;-73
2021/06/07 09:57:48;;;;;;;11.23;6.68;;;;;;;26.00;33.37;102661.22;5074679;28;20509;-73
2021/06/07 10:00:37;;;;;;;11.50;6.95;;;;;;;26.23;33.01;102670.56;5076931;28;20458;-73
2021/06/07 10:03:19;;;;;;;13.98;8.38;;;;;;;25.27;33.67;102662.47;5069557;28;20291;-73
2021/06/07 10:05:47;;;;;;;12.88;7.68;;;;;;;25.41;33.68;102665.16;5074720;28;20058;-72
2021/06/07 10:08:16;;;;;;;13.77;7.03;;;;;;;25.60;33.45;102663.94;5072023;28;20060;-72
2021/06/07 10:10:45;;;;;;;8.90;6.57;;;;;;;26.12;32.89;102660.41;5074417;28;20047;-73
2021/06/07 10:13:14;;;;;;;15.02;6.20;;;;;;;26.57;32.91;102655.38;5066141;28;20069;-73
2021/06/07 10:15:43;;;;;;;12.20;6.95;;;;;;;26.52;31.53;102654.81;5075528;28;20452;-72
2021/06/07 10:18:12;;;;;;;11.20;7.28;;;;;;;26.26;32.21;102657.56;5073986;28;20059;-72
2021/06/07 10:20:53;;;;;;;12.77;8.00;;;;;;;26.36;31.30;102654.19;5075658;28;20056;-71
2021/06/07 10:23:23;;;;;;;13.50;7.72;;;;;;;26.55;31.49;102649.13;5069495;28;20118;-72
2021/06/07 10:25:55;;;;;;;10.10;6.38;;;;;;;27.17;31.59;102642.78;5077100;28;20068;-72
2021/06/07 10:28:27;;;;;;;9.23;6.40;;;;;;;26.02;32.98;102649.22;5069458;28;21397;-72
2021/06/07 10:30:56;;;;;;;14.73;8.00;;;;;;;26.24;32.55;102654.06;5076431;28;20052;-73
2021/06/07 10:33:32;;;;;;;10.05;7.15;;;;;;;25.81;33.59;102653.38;5072735;28;20301;-73
2021/06/07 10:36:32;;;;;;;12.77;8.32;;;;;;;25.51;33.17;102655.38;5074048;28;20066;-73
2021/06/07 10:39:23;;;;;;;13.93;7.72;;;;;;;26.30;32.21;102650.00;5071999;28;20067;-73
2021/06/07 10:42:16;;;;;;;11.10;7.55;;;;;;;26.58;32.11;102657.13;5078136;28;20060;-73
2021/06/07 10:44:47;;;;;;;8.95;6.75;;;;;;;26.20;32.28;102648.91;5078997;28;20105;-73
2021/06/07 10:47:17;;;;;;;13.63;7.75;;;;;;;26.21;32.15;102651.53;5076184;28;20381;-73
2021/06/07 10:49:47;;;;;;;11.05;7.43;;;;;;;26.64;31.10;102653.97;5077395;28;20087;-71
2021/06/07 10:52:17;;;;;;;17.88;8.88;;;;;;;26.14;31.86;102647.47;5076046;28;20118;-74
2021/06/07 10:54:46;;;;;;;14.43;9.20;;;;;;;26.08;32.83;102651.53;5075904;28;20101;-71
2021/06/07 10:57:35;;;;;;;10.60;7.20;;;;;;;27.17;31.01;102637.31;5078212;28;20188;-72
2021/06/07 11:00:09;;;;;;;11.43;7.10;;;;;;;26.81;32.12;102640.94;5073395;28;20135;-72
2021/06/07 11:02:38;;;;;;;12.48;7.82;;;;;;;27.64;31.23;102633.88;5075044;28;20056;-73
2021/06/07 11:05:11;;;;;;;12.02;7.88;;;;;;;27.10;30.46;102643.38;5078242;28;20063;-74
2021/06/07 11:07:40;;;;;;;13.30;8.90;;;;;;;27.13;31.22;102638.53;5082513;28;20055;-72
2021/06/07 11:10:14;;;;;;;11.70;8.52;;;;;;;26.74;31.35;102639.63;5077704;28;20413;-74
2021/06/07 11:12:45;;;;;;;14.27;8.27;;;;;;;26.57;31.71;102636.22;5082284;28;20048;-72
2021/06/07 11:15:15;;;;;;;14.88;8.77;;;;;;;26.64;32.44;102644.88;5075804;28;20066;-72
2021/06/07 11:17:43;;;;;;;12.10;8.52;;;;;;;26.90;31.44;102637.53;5078297;28;20048;-72
2021/06/07 11:20:13;;;;;;;15.07;9.07;;;;;;;26.33;31.86;102635.25;5093635;27;20105;-74
2021/06/07 11:23:03;;;;;;;15.18;8.68;;;;;;;27.19;32.21;102635.38;5092030;27;20060;-72
2021/06/07 11:25:31;;;;;;;15.95;10.15;;;;;;;26.63;31.69;102635.81;5081378;28;20057;-71
2021/06/07 11:28:00;;;;;;;15.05;9.25;;;;;;;27.04;31.51;102628.28;5078693;28;20056;-72
2021/06/07 11:30:32;;;;;;;16.05;9.35;;;;;;;26.25;33.13;102636.63;5077765;28;20044;-73